sensor_id;sensor_type;location;lat;lon;timestamp;P1;durP1;ratioP1;P2;durP2;ratioP2
54388;SDS011;40975;50.390;8.640;2023-07-29T00:00:17;2.42;;;2.00;;
54388;SDS011;40975;50.390;8.640;2023-07-29T00:02:43;2.03;;;1.80;;
54388;SDS011;40975;50.390;8.640;2023-07-29T00:05:09;2.00;;;1.60;;
54388;SDS011;40975;50.390;8.640;2023-07-29T00:07:34;1.73;;;1.50;;
54388;SDS011;40975;50.390;8.640;2023-07-29T00:09:59;3.33;;;1.52;;
54388;SDS011;40975;50.390;8.640;2023-07-29T00:12:25;5.28;;;1.60;;
54388;SDS011;40975;50.390;8.640;2023-07-29T00:14:50;2.10;;;1.77;;
54388;SDS011;40975;50.390;8.640;2023-07-29T00:17:15;3.30;;;1.83;;
54388;SDS011;40975;50.390;8.640;2023-07-29T00:19:41;6.10;;;1.85;;
54388;SDS011;40975;50.390;8.640;2023-07-29T00:22:06;3.05;;;1.70;;
54388;SDS011;40975;50.390;8.640;2023-07-29T00:24:33;1.92;;;1.35;;
54388;SDS011;40975;50.390;8.640;2023-07-29T00:26:58;2.00;;;1.45;;
54388;SDS011;40975;50.390;8.640;2023-07-29T00:29:24;1.92;;;1.80;;
54388;SDS011;40975;50.390;8.640;2023-07-29T00:31:50;2.13;;;1.95;;
54388;SDS011;40975;50.390;8.640;2023-07-29T00:34:16;2.70;;;1.95;;
54388;SDS011;40975;50.390;8.640;2023-07-29T00:36:44;2.30;;;2.10;;
54388;SDS011;40975;50.390;8.640;2023-07-29T00:39:11;2.45;;;2.25;;
54388;SDS011;40975;50.390;8.640;2023-07-29T00:41:36;4.10;;;2.20;;
54388;SDS011;40975;50.390;8.640;2023-07-29T00:44:02;2.67;;;2.47;;
54388;SDS011;40975;50.390;8.640;2023-07-29T00:46:29;2.55;;;2.35;;
54388;SDS011;40975;50.390;8.640;2023-07-29T00:48:56;3.15;;;2.40;;
54388;SDS011;40975;50.390;8.640;2023-07-29T00:51:22;3.00;;;2.10;;
54388;SDS011;40975;50.390;8.640;2023-07-29T00:53:48;2.33;;;2.13;;
54388;SDS011;40975;50.390;8.640;2023-07-29T00:56:13;3.95;;;2.08;;
54388;SDS011;40975;50.390;8.640;2023-07-29T00:58:39;5.28;;;2.50;;
54388;SDS011;40975;50.390;8.640;2023-07-29T01:01:04;2.58;;;2.22;;
54388;SDS011;40975;50.390;8.640;2023-07-29T01:03:30;3.17;;;2.20;;
54388;SDS011;40975;50.390;8.640;2023-07-29T01:05:59;3.15;;;2.25;;
54388;SDS011;40975;50.390;8.640;2023-07-29T01:08:37;2.60;;;2.20;;
54388;SDS011;40975;50.390;8.640;2023-07-29T01:11:13;2.97;;;1.98;;
54388;SDS011;40975;50.390;8.640;2023-07-29T01:13:53;4.55;;;2.22;;
54388;SDS011;40975;50.390;8.640;2023-07-29T01:16:30;5.18;;;2.20;;
54388;SDS011;40975;50.390;8.640;2023-07-29T01:19:05;2.30;;;2.10;;
54388;SDS011;40975;50.390;8.640;2023-07-29T01:21:35;2.55;;;2.15;;
54388;SDS011;40975;50.390;8.640;2023-07-29T01:24:00;3.33;;;2.50;;
54388;SDS011;40975;50.390;8.640;2023-07-29T01:26:26;2.92;;;2.40;;
54388;SDS011;40975;50.390;8.640;2023-07-29T01:28:53;2.30;;;2.10;;
54388;SDS011;40975;50.390;8.640;2023-07-29T01:31:33;4.60;;;2.70;;
54388;SDS011;40975;50.390;8.640;2023-07-29T01:34:07;2.72;;;2.35;;
54388;SDS011;40975;50.390;8.640;2023-07-29T01:36:39;2.28;;;2.08;;
54388;SDS011;40975;50.390;8.640;2023-07-29T01:39:08;3.13;;;2.83;;
54388;SDS011;40975;50.390;8.640;2023-07-29T01:41:37;2.92;;;2.63;;
54388;SDS011;40975;50.390;8.640;2023-07-29T01:44:04;3.10;;;2.42;;
54388;SDS011;40975;50.390;8.640;2023-07-29T01:46:32;2.97;;;2.72;;
54388;SDS011;40975;50.390;8.640;2023-07-29T01:48:59;3.33;;;2.70;;
54388;SDS011;40975;50.390;8.640;2023-07-29T01:51:24;3.58;;;2.72;;
54388;SDS011;40975;50.390;8.640;2023-07-29T01:53:50;3.42;;;2.80;;
54388;SDS011;40975;50.390;8.640;2023-07-29T01:56:15;4.57;;;2.50;;
54388;SDS011;40975;50.390;8.640;2023-07-29T01:58:49;2.70;;;2.50;;
54388;SDS011;40975;50.390;8.640;2023-07-29T02:01:14;3.55;;;2.55;;
54388;SDS011;40975;50.390;8.640;2023-07-29T02:03:40;3.67;;;3.20;;
54388;SDS011;40975;50.390;8.640;2023-07-29T02:06:05;2.70;;;2.50;;
54388;SDS011;40975;50.390;8.640;2023-07-29T02:08:31;3.40;;;2.60;;
54388;SDS011;40975;50.390;8.640;2023-07-29T02:10:56;3.90;;;2.75;;
54388;SDS011;40975;50.390;8.640;2023-07-29T02:13:22;4.15;;;2.90;;
54388;SDS011;40975;50.390;8.640;2023-07-29T02:15:48;2.85;;;2.47;;
54388;SDS011;40975;50.390;8.640;2023-07-29T02:18:13;3.80;;;2.78;;
54388;SDS011;40975;50.390;8.640;2023-07-29T02:20:38;4.47;;;2.55;;
54388;SDS011;40975;50.390;8.640;2023-07-29T02:23:04;4.55;;;2.80;;
54388;SDS011;40975;50.390;8.640;2023-07-29T02:25:29;2.88;;;2.67;;
54388;SDS011;40975;50.390;8.640;2023-07-29T02:27:55;3.80;;;2.85;;
54388;SDS011;40975;50.390;8.640;2023-07-29T02:30:20;2.95;;;2.75;;
54388;SDS011;40975;50.390;8.640;2023-07-29T02:32:46;2.42;;;2.22;;
54388;SDS011;40975;50.390;8.640;2023-07-29T02:35:12;4.55;;;2.85;;
54388;SDS011;40975;50.390;8.640;2023-07-29T02:37:37;2.72;;;2.53;;
54388;SDS011;40975;50.390;8.640;2023-07-29T02:40:03;3.20;;;2.47;;
54388;SDS011;40975;50.390;8.640;2023-07-29T02:42:29;3.00;;;2.80;;
54388;SDS011;40975;50.390;8.640;2023-07-29T02:44:54;4.05;;;2.65;;
54388;SDS011;40975;50.390;8.640;2023-07-29T02:47:19;3.92;;;2.72;;
54388;SDS011;40975;50.390;8.640;2023-07-29T02:49:45;4.40;;;3.90;;
54388;SDS011;40975;50.390;8.640;2023-07-29T02:52:10;6.57;;;4.28;;
54388;SDS011;40975;50.390;8.640;2023-07-29T02:54:35;6.90;;;4.75;;
54388;SDS011;40975;50.390;8.640;2023-07-29T02:57:01;7.15;;;5.35;;
54388;SDS011;40975;50.390;8.640;2023-07-29T02:59:26;8.45;;;5.13;;
54388;SDS011;40975;50.390;8.640;2023-07-29T03:01:52;7.18;;;5.20;;
54388;SDS011;40975;50.390;8.640;2023-07-29T03:04:18;7.32;;;4.90;;
54388;SDS011;40975;50.390;8.640;2023-07-29T03:06:43;6.55;;;4.65;;
54388;SDS011;40975;50.390;8.640;2023-07-29T03:09:09;6.32;;;4.45;;
54388;SDS011;40975;50.390;8.640;2023-07-29T03:11:34;7.78;;;4.95;;
54388;SDS011;40975;50.390;8.640;2023-07-29T03:14:00;7.38;;;5.10;;
54388;SDS011;40975;50.390;8.640;2023-07-29T03:16:27;5.82;;;4.40;;
54388;SDS011;40975;50.390;8.640;2023-07-29T03:18:55;5.72;;;4.45;;
54388;SDS011;40975;50.390;8.640;2023-07-29T03:21:20;8.15;;;4.72;;
54388;SDS011;40975;50.390;8.640;2023-07-29T03:23:45;7.43;;;4.85;;
54388;SDS011;40975;50.390;8.640;2023-07-29T03:26:11;7.07;;;4.75;;
54388;SDS011;40975;50.390;8.640;2023-07-29T03:28:38;5.85;;;4.22;;
54388;SDS011;40975;50.390;8.640;2023-07-29T03:31:04;4.95;;;4.18;;
54388;SDS011;40975;50.390;8.640;2023-07-29T03:33:30;5.65;;;4.35;;
54388;SDS011;40975;50.390;8.640;2023-07-29T03:35:56;7.70;;;4.10;;
54388;SDS011;40975;50.390;8.640;2023-07-29T03:38:21;5.30;;;4.05;;
54388;SDS011;40975;50.390;8.640;2023-07-29T03:40:46;8.52;;;4.85;;
54388;SDS011;40975;50.390;8.640;2023-07-29T03:43:12;8.50;;;5.00;;
54388;SDS011;40975;50.390;8.640;2023-07-29T03:45:38;5.97;;;4.78;;
54388;SDS011;40975;50.390;8.640;2023-07-29T03:48:05;6.95;;;5.13;;
54388;SDS011;40975;50.390;8.640;2023-07-29T03:50:30;6.50;;;4.97;;
54388;SDS011;40975;50.390;8.640;2023-07-29T03:52:57;10.10;;;5.75;;
54388;SDS011;40975;50.390;8.640;2023-07-29T03:55:23;7.10;;;5.43;;
54388;SDS011;40975;50.390;8.640;2023-07-29T03:57:48;5.75;;;4.85;;
54388;SDS011;40975;50.390;8.640;2023-07-29T04:00:14;6.78;;;5.18;;
54388;SDS011;40975;50.390;8.640;2023-07-29T04:02:42;6.53;;;4.18;;
54388;SDS011;40975;50.390;8.640;2023-07-29T04:05:09;7.15;;;4.85;;
54388;SDS011;40975;50.390;8.640;2023-07-29T04:07:35;5.22;;;4.43;;
54388;SDS011;40975;50.390;8.640;2023-07-29T04:10:01;5.47;;;4.43;;
54388;SDS011;40975;50.390;8.640;2023-07-29T04:12:27;5.55;;;4.03;;
54388;SDS011;40975;50.390;8.640;2023-07-29T04:14:53;4.88;;;3.80;;
54388;SDS011;40975;50.390;8.640;2023-07-29T04:17:18;5.68;;;3.63;;
54388;SDS011;40975;50.390;8.640;2023-07-29T04:19:44;5.03;;;4.05;;
54388;SDS011;40975;50.390;8.640;2023-07-29T04:22:09;4.85;;;3.60;;
54388;SDS011;40975;50.390;8.640;2023-07-29T04:24:34;4.07;;;3.28;;
54388;SDS011;40975;50.390;8.640;2023-07-29T04:27:00;4.60;;;3.40;;
54388;SDS011;40975;50.390;8.640;2023-07-29T04:29:25;3.30;;;2.70;;
54388;SDS011;40975;50.390;8.640;2023-07-29T04:31:50;5.53;;;4.10;;
54388;SDS011;40975;50.390;8.640;2023-07-29T04:34:17;5.95;;;4.22;;
54388;SDS011;40975;50.390;8.640;2023-07-29T04:36:43;7.20;;;4.50;;
54388;SDS011;40975;50.390;8.640;2023-07-29T04:39:10;8.60;;;5.88;;
54388;SDS011;40975;50.390;8.640;2023-07-29T04:41:35;2.90;;;2.60;;
54388;SDS011;40975;50.390;8.640;2023-07-29T04:44:01;3.83;;;3.00;;
54388;SDS011;40975;50.390;8.640;2023-07-29T04:46:26;2.67;;;2.47;;
54388;SDS011;40975;50.390;8.640;2023-07-29T04:48:51;5.07;;;2.80;;
54388;SDS011;40975;50.390;8.640;2023-07-29T04:51:17;3.97;;;2.85;;
54388;SDS011;40975;50.390;8.640;2023-07-29T04:53:42;3.08;;;2.78;;
54388;SDS011;40975;50.390;8.640;2023-07-29T04:56:07;4.20;;;2.92;;
54388;SDS011;40975;50.390;8.640;2023-07-29T04:58:33;3.35;;;2.65;;
54388;SDS011;40975;50.390;8.640;2023-07-29T05:01:00;3.08;;;2.60;;
54388;SDS011;40975;50.390;8.640;2023-07-29T05:03:26;3.63;;;3.10;;
54388;SDS011;40975;50.390;8.640;2023-07-29T05:05:52;3.85;;;2.95;;
54388;SDS011;40975;50.390;8.640;2023-07-29T05:08:20;3.22;;;2.90;;
54388;SDS011;40975;50.390;8.640;2023-07-29T05:10:48;2.90;;;2.60;;
54388;SDS011;40975;50.390;8.640;2023-07-29T05:13:14;3.17;;;2.70;;
54388;SDS011;40975;50.390;8.640;2023-07-29T05:15:40;6.15;;;3.45;;
54388;SDS011;40975;50.390;8.640;2023-07-29T05:18:05;5.20;;;2.70;;
54388;SDS011;40975;50.390;8.640;2023-07-29T05:20:30;5.78;;;3.70;;
54388;SDS011;40975;50.390;8.640;2023-07-29T05:22:56;3.47;;;2.80;;
54388;SDS011;40975;50.390;8.640;2023-07-29T05:25:21;2.80;;;2.38;;
54388;SDS011;40975;50.390;8.640;2023-07-29T05:27:46;4.38;;;2.63;;
54388;SDS011;40975;50.390;8.640;2023-07-29T05:30:12;2.55;;;2.35;;
54388;SDS011;40975;50.390;8.640;2023-07-29T05:32:37;2.83;;;2.20;;
54388;SDS011;40975;50.390;8.640;2023-07-29T05:35:05;2.33;;;2.13;;
54388;SDS011;40975;50.390;8.640;2023-07-29T05:37:30;4.57;;;2.50;;
54388;SDS011;40975;50.390;8.640;2023-07-29T05:39:56;2.35;;;2.15;;
54388;SDS011;40975;50.390;8.640;2023-07-29T05:42:21;2.42;;;2.05;;
54388;SDS011;40975;50.390;8.640;2023-07-29T05:44:46;2.40;;;2.20;;
54388;SDS011;40975;50.390;8.640;2023-07-29T05:47:12;3.10;;;1.73;;
54388;SDS011;40975;50.390;8.640;2023-07-29T05:49:37;4.78;;;2.40;;
54388;SDS011;40975;50.390;8.640;2023-07-29T05:52:03;3.28;;;2.50;;
54388;SDS011;40975;50.390;8.640;2023-07-29T05:54:28;3.58;;;2.92;;
54388;SDS011;40975;50.390;8.640;2023-07-29T05:56:54;3.42;;;3.08;;
54388;SDS011;40975;50.390;8.640;2023-07-29T05:59:19;3.28;;;2.97;;
54388;SDS011;40975;50.390;8.640;2023-07-29T06:01:44;3.00;;;2.70;;
54388;SDS011;40975;50.390;8.640;2023-07-29T06:04:11;3.13;;;2.83;;
54388;SDS011;40975;50.390;8.640;2023-07-29T06:06:37;3.00;;;2.70;;
54388;SDS011;40975;50.390;8.640;2023-07-29T06:09:02;3.08;;;2.65;;
54388;SDS011;40975;50.390;8.640;2023-07-29T06:11:28;36.88;;;18.70;;
54388;SDS011;40975;50.390;8.640;2023-07-29T06:13:53;11.43;;;7.53;;
54388;SDS011;40975;50.390;8.640;2023-07-29T06:16:18;5.40;;;3.53;;
54388;SDS011;40975;50.390;8.640;2023-07-29T06:18:45;3.00;;;2.58;;
54388;SDS011;40975;50.390;8.640;2023-07-29T06:21:10;3.58;;;2.35;;
54388;SDS011;40975;50.390;8.640;2023-07-29T06:26:06;3.17;;;2.60;;
54388;SDS011;40975;50.390;8.640;2023-07-29T06:28:32;2.33;;;2.13;;
54388;SDS011;40975;50.390;8.640;2023-07-29T06:30:57;4.53;;;2.15;;
54388;SDS011;40975;50.390;8.640;2023-07-29T06:33:22;2.35;;;2.00;;
54388;SDS011;40975;50.390;8.640;2023-07-29T06:35:48;1.83;;;1.58;;
54388;SDS011;40975;50.390;8.640;2023-07-29T06:38:14;2.30;;;1.45;;
54388;SDS011;40975;50.390;8.640;2023-07-29T06:40:39;1.60;;;1.50;;
54388;SDS011;40975;50.390;8.640;2023-07-29T06:43:04;1.80;;;1.55;;
54388;SDS011;40975;50.390;8.640;2023-07-29T06:45:29;2.58;;;1.80;;
54388;SDS011;40975;50.390;8.640;2023-07-29T06:47:55;2.22;;;1.65;;
54388;SDS011;40975;50.390;8.640;2023-07-29T06:50:20;1.85;;;1.75;;
54388;SDS011;40975;50.390;8.640;2023-07-29T06:52:45;1.67;;;1.58;;
54388;SDS011;40975;50.390;8.640;2023-07-29T06:55:11;3.58;;;1.80;;
54388;SDS011;40975;50.390;8.640;2023-07-29T06:57:36;2.05;;;1.73;;
54388;SDS011;40975;50.390;8.640;2023-07-29T07:00:02;2.30;;;1.80;;
54388;SDS011;40975;50.390;8.640;2023-07-29T07:02:28;2.40;;;1.60;;
54388;SDS011;40975;50.390;8.640;2023-07-29T07:04:53;2.67;;;1.80;;
54388;SDS011;40975;50.390;8.640;2023-07-29T07:07:19;2.83;;;2.13;;
54388;SDS011;40975;50.390;8.640;2023-07-29T07:09:44;2.17;;;1.70;;
54388;SDS011;40975;50.390;8.640;2023-07-29T07:12:09;3.92;;;1.85;;
54388;SDS011;40975;50.390;8.640;2023-07-29T07:14:34;1.90;;;1.70;;
54388;SDS011;40975;50.390;8.640;2023-07-29T07:17:00;1.80;;;1.70;;
54388;SDS011;40975;50.390;8.640;2023-07-29T07:19:25;2.50;;;2.30;;
54388;SDS011;40975;50.390;8.640;2023-07-29T07:21:51;2.40;;;2.20;;
54388;SDS011;40975;50.390;8.640;2023-07-29T07:24:16;3.55;;;1.90;;
54388;SDS011;40975;50.390;8.640;2023-07-29T07:26:41;2.75;;;1.80;;
54388;SDS011;40975;50.390;8.640;2023-07-29T07:29:07;8.50;;;5.18;;
54388;SDS011;40975;50.390;8.640;2023-07-29T07:31:33;4.15;;;3.00;;
54388;SDS011;40975;50.390;8.640;2023-07-29T07:33:59;8.48;;;4.65;;
54388;SDS011;40975;50.390;8.640;2023-07-29T07:36:24;13.65;;;6.88;;
54388;SDS011;40975;50.390;8.640;2023-07-29T07:38:49;8.63;;;3.67;;
54388;SDS011;40975;50.390;8.640;2023-07-29T07:41:15;2.88;;;1.98;;
54388;SDS011;40975;50.390;8.640;2023-07-29T07:43:40;2.17;;;1.98;;
54388;SDS011;40975;50.390;8.640;2023-07-29T07:46:06;4.93;;;2.17;;
54388;SDS011;40975;50.390;8.640;2023-07-29T07:48:31;2.33;;;1.95;;
54388;SDS011;40975;50.390;8.640;2023-07-29T07:50:58;3.20;;;2.20;;
54388;SDS011;40975;50.390;8.640;2023-07-29T07:53:23;2.50;;;2.30;;
54388;SDS011;40975;50.390;8.640;2023-07-29T07:55:50;2.50;;;2.30;;
54388;SDS011;40975;50.390;8.640;2023-07-29T07:58:16;3.25;;;2.13;;
54388;SDS011;40975;50.390;8.640;2023-07-29T08:00:41;5.75;;;2.30;;
54388;SDS011;40975;50.390;8.640;2023-07-29T08:03:06;2.38;;;2.05;;
54388;SDS011;40975;50.390;8.640;2023-07-29T08:05:32;1.92;;;1.80;;
54388;SDS011;40975;50.390;8.640;2023-07-29T08:07:57;1.83;;;1.63;;
54388;SDS011;40975;50.390;8.640;2023-07-29T08:10:22;1.65;;;1.55;;
54388;SDS011;40975;50.390;8.640;2023-07-29T08:12:48;1.58;;;1.48;;
54388;SDS011;40975;50.390;8.640;2023-07-29T08:15:13;1.50;;;1.40;;
54388;SDS011;40975;50.390;8.640;2023-07-29T08:17:38;1.83;;;1.40;;
54388;SDS011;40975;50.390;8.640;2023-07-29T08:20:04;1.17;;;1.08;;
54388;SDS011;40975;50.390;8.640;2023-07-29T08:22:30;0.82;;;0.77;;
54388;SDS011;40975;50.390;8.640;2023-07-29T08:24:55;1.58;;;1.05;;
54388;SDS011;40975;50.390;8.640;2023-07-29T08:27:20;1.80;;;1.08;;
54388;SDS011;40975;50.390;8.640;2023-07-29T08:29:46;1.17;;;0.82;;
54388;SDS011;40975;50.390;8.640;2023-07-29T08:32:11;2.05;;;0.80;;
54388;SDS011;40975;50.390;8.640;2023-07-29T08:34:36;1.08;;;0.90;;
54388;SDS011;40975;50.390;8.640;2023-07-29T08:37:01;0.60;;;0.60;;
54388;SDS011;40975;50.390;8.640;2023-07-29T08:39:27;0.85;;;0.85;;
54388;SDS011;40975;50.390;8.640;2023-07-29T08:42:03;0.60;;;0.60;;
54388;SDS011;40975;50.390;8.640;2023-07-29T08:44:36;0.75;;;0.75;;
54388;SDS011;40975;50.390;8.640;2023-07-29T08:47:06;1.58;;;0.90;;
54388;SDS011;40975;50.390;8.640;2023-07-29T08:49:31;0.75;;;0.68;;
54388;SDS011;40975;50.390;8.640;2023-07-29T08:51:58;0.80;;;0.80;;
54388;SDS011;40975;50.390;8.640;2023-07-29T08:54:24;1.23;;;0.77;;
54388;SDS011;40975;50.390;8.640;2023-07-29T08:56:53;2.38;;;0.80;;
54388;SDS011;40975;50.390;8.640;2023-07-29T08:59:19;0.85;;;0.70;;
54388;SDS011;40975;50.390;8.640;2023-07-29T09:01:45;0.40;;;0.40;;
54388;SDS011;40975;50.390;8.640;2023-07-29T09:04:11;0.75;;;0.75;;
54388;SDS011;40975;50.390;8.640;2023-07-29T09:06:37;0.60;;;0.60;;
54388;SDS011;40975;50.390;8.640;2023-07-29T09:09:04;1.13;;;0.70;;
54388;SDS011;40975;50.390;8.640;2023-07-29T09:11:30;1.17;;;0.65;;
54388;SDS011;40975;50.390;8.640;2023-07-29T09:13:56;0.77;;;0.70;;
54388;SDS011;40975;50.390;8.640;2023-07-29T09:16:22;1.65;;;0.60;;
54388;SDS011;40975;50.390;8.640;2023-07-29T09:18:48;1.05;;;0.68;;
54388;SDS011;40975;50.390;8.640;2023-07-29T09:21:15;0.88;;;0.80;;
54388;SDS011;40975;50.390;8.640;2023-07-29T09:23:43;14.23;;;8.57;;
54388;SDS011;40975;50.390;8.640;2023-07-29T09:26:09;4.38;;;2.42;;
54388;SDS011;40975;50.390;8.640;2023-07-29T09:28:36;2.63;;;1.92;;
54388;SDS011;40975;50.390;8.640;2023-07-29T09:31:02;7.65;;;4.05;;
54388;SDS011;40975;50.390;8.640;2023-07-29T09:33:34;0.65;;;0.60;;
54388;SDS011;40975;50.390;8.640;2023-07-29T09:36:02;0.80;;;0.70;;
54388;SDS011;40975;50.390;8.640;2023-07-29T09:38:33;0.75;;;0.75;;
54388;SDS011;40975;50.390;8.640;2023-07-29T09:40:59;1.15;;;0.65;;
54388;SDS011;40975;50.390;8.640;2023-07-29T09:43:25;1.90;;;0.70;;
54388;SDS011;40975;50.390;8.640;2023-07-29T09:49:41;1.45;;;0.70;;
54388;SDS011;40975;50.390;8.640;2023-07-29T09:52:08;2.03;;;1.30;;
54388;SDS011;40975;50.390;8.640;2023-07-29T09:54:33;1.90;;;0.75;;
54388;SDS011;40975;50.390;8.640;2023-07-29T09:57:01;0.90;;;0.65;;
54388;SDS011;40975;50.390;8.640;2023-07-29T09:59:27;0.85;;;0.82;;
54388;SDS011;40975;50.390;8.640;2023-07-29T10:01:53;0.88;;;0.73;;
54388;SDS011;40975;50.390;8.640;2023-07-29T10:04:18;5.43;;;1.63;;
54388;SDS011;40975;50.390;8.640;2023-07-29T10:06:44;1.38;;;0.55;;
54388;SDS011;40975;50.390;8.640;2023-07-29T10:09:11;1.45;;;0.80;;
54388;SDS011;40975;50.390;8.640;2023-07-29T10:11:37;1.58;;;0.70;;
54388;SDS011;40975;50.390;8.640;2023-07-29T10:14:02;1.10;;;0.77;;
54388;SDS011;40975;50.390;8.640;2023-07-29T10:16:28;1.60;;;0.90;;
54388;SDS011;40975;50.390;8.640;2023-07-29T10:18:53;1.00;;;0.90;;
54388;SDS011;40975;50.390;8.640;2023-07-29T10:21:19;1.45;;;1.00;;
54388;SDS011;40975;50.390;8.640;2023-07-29T10:23:47;1.13;;;0.90;;
54388;SDS011;40975;50.390;8.640;2023-07-29T10:26:17;0.70;;;0.70;;
54388;SDS011;40975;50.390;8.640;2023-07-29T10:28:46;1.70;;;0.77;;
54388;SDS011;40975;50.390;8.640;2023-07-29T10:31:12;2.10;;;0.70;;
54388;SDS011;40975;50.390;8.640;2023-07-29T10:33:40;2.25;;;1.08;;
54388;SDS011;40975;50.390;8.640;2023-07-29T10:36:06;4.70;;;0.88;;
54388;SDS011;40975;50.390;8.640;2023-07-29T10:38:31;2.88;;;0.85;;
54388;SDS011;40975;50.390;8.640;2023-07-29T10:40:57;1.25;;;0.77;;
54388;SDS011;40975;50.390;8.640;2023-07-29T10:45:52;2.85;;;1.02;;
54388;SDS011;40975;50.390;8.640;2023-07-29T10:53:47;0.63;;;0.60;;
54388;SDS011;40975;50.390;8.640;2023-07-29T10:56:12;1.10;;;0.90;;
54388;SDS011;40975;50.390;8.640;2023-07-29T10:58:38;3.60;;;2.88;;
54388;SDS011;40975;50.390;8.640;2023-07-29T11:01:12;9.82;;;5.43;;
54388;SDS011;40975;50.390;8.640;2023-07-29T11:03:38;3.35;;;2.28;;
54388;SDS011;40975;50.390;8.640;2023-07-29T11:06:06;1.90;;;1.55;;
54388;SDS011;40975;50.390;8.640;2023-07-29T11:08:31;3.03;;;1.10;;
54388;SDS011;40975;50.390;8.640;2023-07-29T11:13:28;0.70;;;0.70;;
54388;SDS011;40975;50.390;8.640;2023-07-29T11:15:55;1.33;;;1.00;;
54388;SDS011;40975;50.390;8.640;2023-07-29T11:18:21;1.65;;;0.80;;
54388;SDS011;40975;50.390;8.640;2023-07-29T11:20:47;1.52;;;0.93;;
54388;SDS011;40975;50.390;8.640;2023-07-29T11:23:13;1.40;;;0.90;;
54388;SDS011;40975;50.390;8.640;2023-07-29T11:25:39;0.95;;;0.93;;
54388;SDS011;40975;50.390;8.640;2023-07-29T11:28:04;2.30;;;1.35;;
54388;SDS011;40975;50.390;8.640;2023-07-29T11:30:30;1.70;;;1.00;;
54388;SDS011;40975;50.390;8.640;2023-07-29T11:32:56;0.77;;;0.60;;
54388;SDS011;40975;50.390;8.640;2023-07-29T11:35:22;3.83;;;1.10;;
54388;SDS011;40975;50.390;8.640;2023-07-29T11:37:48;1.13;;;0.85;;
54388;SDS011;40975;50.390;8.640;2023-07-29T11:40:15;0.80;;;0.73;;
54388;SDS011;40975;50.390;8.640;2023-07-29T11:42:42;0.80;;;0.80;;
54388;SDS011;40975;50.390;8.640;2023-07-29T11:45:08;1.25;;;0.90;;
54388;SDS011;40975;50.390;8.640;2023-07-29T11:47:34;1.95;;;0.80;;
54388;SDS011;40975;50.390;8.640;2023-07-29T11:50:02;1.30;;;0.80;;
54388;SDS011;40975;50.390;8.640;2023-07-29T11:52:29;0.75;;;0.75;;
54388;SDS011;40975;50.390;8.640;2023-07-29T11:55:00;2.15;;;1.10;;
54388;SDS011;40975;50.390;8.640;2023-07-29T11:57:27;0.65;;;0.65;;
54388;SDS011;40975;50.390;8.640;2023-07-29T11:59:53;0.90;;;0.60;;
54388;SDS011;40975;50.390;8.640;2023-07-29T12:02:19;1.05;;;0.95;;
54388;SDS011;40975;50.390;8.640;2023-07-29T12:04:46;1.02;;;0.80;;
54388;SDS011;40975;50.390;8.640;2023-07-29T12:07:13;0.80;;;0.80;;
54388;SDS011;40975;50.390;8.640;2023-07-29T12:09:40;1.05;;;0.80;;
54388;SDS011;40975;50.390;8.640;2023-07-29T12:12:07;7.28;;;4.60;;
54388;SDS011;40975;50.390;8.640;2023-07-29T12:14:32;1.30;;;0.70;;
54388;SDS011;40975;50.390;8.640;2023-07-29T12:17:02;1.45;;;0.77;;
54388;SDS011;40975;50.390;8.640;2023-07-29T12:19:35;2.05;;;0.88;;
54388;SDS011;40975;50.390;8.640;2023-07-29T12:22:01;0.80;;;0.80;;
54388;SDS011;40975;50.390;8.640;2023-07-29T12:24:29;1.75;;;0.80;;
54388;SDS011;40975;50.390;8.640;2023-07-29T12:26:55;1.70;;;0.80;;
54388;SDS011;40975;50.390;8.640;2023-07-29T12:29:20;1.38;;;0.80;;
54388;SDS011;40975;50.390;8.640;2023-07-29T12:31:46;1.30;;;0.80;;
54388;SDS011;40975;50.390;8.640;2023-07-29T12:34:19;3.20;;;0.80;;
54388;SDS011;40975;50.390;8.640;2023-07-29T12:36:48;2.58;;;1.10;;
54388;SDS011;40975;50.390;8.640;2023-07-29T12:39:18;2.73;;;0.80;;
54388;SDS011;40975;50.390;8.640;2023-07-29T12:41:45;1.90;;;0.90;;
54388;SDS011;40975;50.390;8.640;2023-07-29T12:44:10;1.58;;;0.80;;
54388;SDS011;40975;50.390;8.640;2023-07-29T12:46:35;1.27;;;0.80;;
54388;SDS011;40975;50.390;8.640;2023-07-29T12:49:01;0.98;;;0.80;;
54388;SDS011;40975;50.390;8.640;2023-07-29T12:51:26;0.90;;;0.80;;
54388;SDS011;40975;50.390;8.640;2023-07-29T12:53:53;1.08;;;0.95;;
54388;SDS011;40975;50.390;8.640;2023-07-29T12:56:19;0.85;;;0.80;;
54388;SDS011;40975;50.390;8.640;2023-07-29T12:58:44;1.13;;;0.70;;
54388;SDS011;40975;50.390;8.640;2023-07-29T13:01:09;1.02;;;0.90;;
54388;SDS011;40975;50.390;8.640;2023-07-29T13:03:37;1.80;;;0.95;;
54388;SDS011;40975;50.390;8.640;2023-07-29T13:06:03;0.90;;;0.80;;
54388;SDS011;40975;50.390;8.640;2023-07-29T13:08:29;1.30;;;1.00;;
54388;SDS011;40975;50.390;8.640;2023-07-29T13:10:55;2.17;;;0.88;;
54388;SDS011;40975;50.390;8.640;2023-07-29T13:13:20;4.30;;;1.75;;
54388;SDS011;40975;50.390;8.640;2023-07-29T13:15:46;1.25;;;0.70;;
54388;SDS011;40975;50.390;8.640;2023-07-29T13:18:11;1.38;;;0.77;;
54388;SDS011;40975;50.390;8.640;2023-07-29T13:20:36;1.20;;;0.93;;
54388;SDS011;40975;50.390;8.640;2023-07-29T13:23:02;2.67;;;1.00;;
54388;SDS011;40975;50.390;8.640;2023-07-29T13:25:28;2.10;;;0.90;;
54388;SDS011;40975;50.390;8.640;2023-07-29T13:27:53;0.80;;;0.80;;
54388;SDS011;40975;50.390;8.640;2023-07-29T13:30:18;4.28;;;1.00;;
54388;SDS011;40975;50.390;8.640;2023-07-29T13:32:44;1.20;;;0.80;;
54388;SDS011;40975;50.390;8.640;2023-07-29T13:35:09;1.60;;;0.90;;
54388;SDS011;40975;50.390;8.640;2023-07-29T13:37:35;0.90;;;0.80;;
54388;SDS011;40975;50.390;8.640;2023-07-29T13:40:00;0.77;;;0.77;;
54388;SDS011;40975;50.390;8.640;2023-07-29T13:42:25;1.20;;;0.90;;
54388;SDS011;40975;50.390;8.640;2023-07-29T13:44:51;1.17;;;0.95;;
54388;SDS011;40975;50.390;8.640;2023-07-29T13:47:16;4.43;;;2.50;;
54388;SDS011;40975;50.390;8.640;2023-07-29T13:49:41;5.03;;;2.35;;
54388;SDS011;40975;50.390;8.640;2023-07-29T13:52:07;0.85;;;0.70;;
54388;SDS011;40975;50.390;8.640;2023-07-29T13:54:32;1.77;;;0.93;;
54388;SDS011;40975;50.390;8.640;2023-07-29T13:56:57;1.02;;;0.60;;
54388;SDS011;40975;50.390;8.640;2023-07-29T13:59:23;0.98;;;0.88;;
54388;SDS011;40975;50.390;8.640;2023-07-29T14:01:48;1.17;;;0.85;;
54388;SDS011;40975;50.390;8.640;2023-07-29T14:04:13;0.90;;;0.77;;
54388;SDS011;40975;50.390;8.640;2023-07-29T14:06:39;1.30;;;1.10;;
54388;SDS011;40975;50.390;8.640;2023-07-29T14:09:04;1.95;;;1.10;;
54388;SDS011;40975;50.390;8.640;2023-07-29T14:11:29;0.98;;;0.70;;
54388;SDS011;40975;50.390;8.640;2023-07-29T14:13:55;0.95;;;0.73;;
54388;SDS011;40975;50.390;8.640;2023-07-29T14:16:20;0.55;;;0.55;;
54388;SDS011;40975;50.390;8.640;2023-07-29T14:18:45;1.00;;;0.90;;
54388;SDS011;40975;50.390;8.640;2023-07-29T14:21:11;1.42;;;0.98;;
54388;SDS011;40975;50.390;8.640;2023-07-29T14:23:36;1.08;;;0.93;;
54388;SDS011;40975;50.390;8.640;2023-07-29T14:26:01;1.17;;;1.02;;
54388;SDS011;40975;50.390;8.640;2023-07-29T14:28:27;1.42;;;0.90;;
54388;SDS011;40975;50.390;8.640;2023-07-29T14:30:52;1.17;;;0.73;;
54388;SDS011;40975;50.390;8.640;2023-07-29T14:33:17;1.42;;;1.10;;
54388;SDS011;40975;50.390;8.640;2023-07-29T14:35:43;1.45;;;0.80;;
54388;SDS011;40975;50.390;8.640;2023-07-29T14:38:08;1.98;;;0.80;;
54388;SDS011;40975;50.390;8.640;2023-07-29T14:40:33;0.95;;;0.80;;
54388;SDS011;40975;50.390;8.640;2023-07-29T14:42:58;1.20;;;0.98;;
54388;SDS011;40975;50.390;8.640;2023-07-29T14:45:24;2.58;;;1.20;;
54388;SDS011;40975;50.390;8.640;2023-07-29T14:47:49;1.83;;;1.08;;
54388;SDS011;40975;50.390;8.640;2023-07-29T14:50:15;1.20;;;1.00;;
54388;SDS011;40975;50.390;8.640;2023-07-29T14:52:40;1.50;;;0.88;;
54388;SDS011;40975;50.390;8.640;2023-07-29T14:55:05;1.00;;;0.90;;
54388;SDS011;40975;50.390;8.640;2023-07-29T14:57:31;1.10;;;0.93;;